TEM weather

Temora Airport
New South Wales, Australia

Public forecast

Using degrees Celsius for public forecast. Weather courtesy of forecast.io.

Closest aviation weather report (METAR) to Temora Airport

Closest report is Wagga Wagga City Airport, 44.7 nm (82.8 km) S. Retrieved 2019/10/22 14:00 UTC (59 minutes ago):

YSWG 221400Z AUTO 10005KT 9999 // NCD 15/03 Q1021

Closest aviation forecast (TAF) to Temora Airport

Forecast is more than 12 hours old.

Closest forecast is Wagga Wagga City Airport, 44.7 nm (82.8 km) S. Retrieved 2018/05/25 18:03 UTC (1 year ago):

TAF YSWG 251649Z 2518/2608 07008KT CAVOK